createdAt,value
2018-09-20T00:00:36.378Z,100297.84
2018-09-20T00:03:39.284Z,100293.19
2018-09-20T00:06:42.191Z,100293.97
2018-09-20T00:09:45.699Z,100289.13
2018-09-20T00:12:48.622Z,100288.28
2018-09-20T00:15:52.010Z,100276.77
2018-09-20T00:18:55.463Z,100289.20
2018-09-20T00:21:58.684Z,100283.38
2018-09-20T00:25:01.648Z,100279.55
2018-09-20T00:28:05.137Z,100277.93
2018-09-20T00:31:08.153Z,100267.05
2018-09-20T00:34:11.572Z,100265.92
2018-09-20T00:37:14.510Z,100268.53
2018-09-20T00:40:17.422Z,100260.13
2018-09-20T00:43:20.917Z,100261.89
2018-09-20T00:49:27.899Z,100256.27
2018-09-20T00:52:31.220Z,100254.39
2018-09-20T00:55:34.678Z,100255.59
2018-09-20T00:58:38.148Z,100253.28
2018-09-20T01:04:43.925Z,100252.47
2018-09-20T01:07:46.806Z,100258.88
2018-09-20T01:10:49.748Z,100246.56
2018-09-20T01:13:53.345Z,100257.33
2018-09-20T01:16:56.281Z,100255.23
2018-09-20T01:19:59.197Z,100257.73
2018-09-20T01:23:02.404Z,100256.59
2018-09-20T01:26:06.122Z,100261.28
2018-09-20T01:29:09.479Z,100265.22
2018-09-20T01:32:12.424Z,100253.39
2018-09-20T01:35:15.377Z,100252.04
2018-09-20T01:38:18.312Z,100253.97
2018-09-20T01:41:21.265Z,100257.32
2018-09-20T01:44:24.666Z,100256.05
2018-09-20T01:47:28.098Z,100256.52
2018-09-20T01:50:31.161Z,100265.55
2018-09-20T01:53:34.081Z,100264.30
2018-09-20T01:56:37.005Z,100267.19
2018-09-20T01:59:40.485Z,100268.24
2018-09-20T02:02:43.394Z,100267.58
2018-09-20T02:05:46.819Z,100264.70
2018-09-20T02:08:50.398Z,100269.00
2018-09-20T02:11:53.318Z,100268.50
2018-09-20T02:14:56.258Z,100267.53
2018-09-20T02:17:59.164Z,100273.04
2018-09-20T02:21:02.071Z,100271.84
2018-09-20T02:24:05.460Z,100278.00
2018-09-20T02:27:08.419Z,100274.89
2018-09-20T02:30:11.333Z,100274.89
2018-09-20T02:33:14.831Z,100264.14
2018-09-20T02:36:17.761Z,100261.45
2018-09-20T02:39:20.746Z,100269.73
2018-09-20T02:42:23.682Z,100269.73
2018-09-20T02:45:27.039Z,100268.50
2018-09-20T02:48:30.021Z,100270.47
2018-09-20T02:51:32.871Z,100266.48
2018-09-20T02:54:36.331Z,100257.33
2018-09-20T02:57:39.262Z,100263.72
2018-09-20T03:00:42.657Z,100267.30
2018-09-20T03:03:45.562Z,100261.14
2018-09-20T03:06:48.511Z,100262.01
2018-09-20T03:09:51.469Z,100251.03
2018-09-20T03:12:54.683Z,100258.65
2018-09-20T03:15:57.596Z,100258.97
2018-09-20T03:19:00.481Z,100257.42
2018-09-20T03:22:03.929Z,100257.42
2018-09-20T03:25:06.948Z,100255.43
2018-09-20T03:28:09.870Z,100258.88
2018-09-20T03:31:13.336Z,100255.29
2018-09-20T03:34:16.249Z,100249.19
2018-09-20T03:37:19.138Z,100255.77
2018-09-20T03:40:22.042Z,100257.53
2018-09-20T03:43:24.941Z,100251.65
2018-09-20T03:46:27.854Z,100255.06
2018-09-20T03:49:31.212Z,100258.08
2018-09-20T03:52:34.658Z,100258.61
2018-09-20T03:55:37.917Z,100258.61
2018-09-20T03:58:41.460Z,100258.61
2018-09-20T04:01:44.394Z,100260.61
2018-09-20T04:04:47.302Z,100260.02
2018-09-20T04:07:50.361Z,100256.55
2018-09-20T04:10:53.300Z,100251.00
2018-09-20T04:13:56.742Z,100257.63
2018-09-20T04:16:59.656Z,100250.99
2018-09-20T04:20:03.291Z,100253.86
2018-09-20T04:23:07.081Z,100252.17
2018-09-20T04:26:10.013Z,100246.89
2018-09-20T04:29:12.930Z,100249.65
2018-09-20T04:32:15.889Z,100252.15
2018-09-20T04:35:18.821Z,100247.04
2018-09-20T04:38:21.728Z,100254.56
2018-09-20T04:41:24.605Z,100257.40
2018-09-20T04:44:28.407Z,100254.27
2018-09-20T04:47:31.358Z,100255.22
2018-09-20T04:50:34.551Z,100258.27
2018-09-20T04:53:38.038Z,100266.94
2018-09-20T04:56:40.977Z,100267.78
2018-09-20T05:00:15.073Z,100267.78
2018-09-20T05:03:18.025Z,100265.13
2018-09-20T05:06:21.528Z,100266.22
2018-09-20T05:09:24.838Z,100265.34
2018-09-20T05:12:28.393Z,100258.22
2018-09-20T05:15:31.962Z,100257.61
2018-09-20T05:18:35.263Z,100260.83
2018-09-20T05:21:38.376Z,100260.58
2018-09-20T05:24:41.282Z,100259.09
2018-09-20T05:27:44.184Z,100258.48
2018-09-20T05:30:47.109Z,100249.75
2018-09-20T05:33:50.025Z,100252.23
2018-09-20T05:36:52.922Z,100248.73
2018-09-20T05:39:56.459Z,100250.13
2018-09-20T05:42:59.485Z,100255.06
2018-09-20T05:46:02.396Z,100250.67
2018-09-20T05:49:06.078Z,100245.14
2018-09-20T05:52:09.062Z,100235.99
2018-09-20T05:55:12.328Z,100238.29
2018-09-20T05:58:15.231Z,100240.89
2018-09-20T06:01:18.853Z,100246.68
2018-09-20T06:04:22.216Z,100241.55
2018-09-20T06:07:27.364Z,100248.27
2018-09-20T06:10:30.909Z,100256.02
2018-09-20T06:13:33.815Z,100255.58
2018-09-20T06:16:36.763Z,100257.70
2018-09-20T06:19:40.335Z,100260.13
2018-09-20T06:22:43.808Z,100255.45
2018-09-20T06:25:47.277Z,100258.63
2018-09-20T06:28:50.198Z,100257.55
2018-09-20T06:31:53.836Z,100249.41
2018-09-20T06:34:57.382Z,100260.59
2018-09-20T06:38:00.293Z,100258.27
2018-09-20T06:41:03.405Z,100259.61
2018-09-20T06:44:06.399Z,100254.98
2018-09-20T06:47:09.801Z,100269.99
2018-09-20T06:50:12.778Z,100262.38
2018-09-20T06:53:16.236Z,100265.81
2018-09-20T06:56:19.186Z,100263.00
2018-09-20T06:59:22.050Z,100260.31
2018-09-20T07:02:24.931Z,100256.35
2018-09-20T07:05:27.893Z,100255.55
2018-09-20T07:08:30.800Z,100254.92
2018-09-20T07:11:34.230Z,100246.80
2018-09-20T07:14:37.645Z,100246.19
2018-09-20T07:17:41.781Z,100244.78
2018-09-20T07:20:45.086Z,100241.52
2018-09-20T07:23:48.043Z,100235.43
2018-09-20T07:26:51.472Z,100235.23
2018-09-20T07:29:54.429Z,100238.42
2018-09-20T07:32:57.389Z,100240.19
2018-09-20T07:36:00.856Z,100238.18
2018-09-20T07:39:06.666Z,100231.64
2018-09-20T07:42:09.631Z,100239.73
2018-09-20T07:45:13.184Z,100234.33
2018-09-20T07:48:16.937Z,100235.80
2018-09-20T07:51:20.588Z,100244.23
2018-09-20T07:54:23.494Z,100241.43
2018-09-20T07:57:28.588Z,100249.23
2018-09-20T08:00:32.184Z,100248.78
2018-09-20T08:03:35.123Z,100250.91
2018-09-20T08:06:38.026Z,100248.21
2018-09-20T08:09:40.962Z,100258.67
2018-09-20T08:12:44.448Z,100259.77
2018-09-20T08:15:48.221Z,100255.23
2018-09-20T08:21:53.863Z,100259.75
2018-09-20T08:24:56.834Z,100258.59
2018-09-20T08:27:59.818Z,100267.07
2018-09-20T08:31:04.123Z,100265.24
2018-09-20T08:34:07.640Z,100274.07
2018-09-20T08:37:10.680Z,100262.34
2018-09-20T08:40:13.912Z,100261.78
2018-09-20T08:43:16.795Z,100264.65
2018-09-20T08:46:20.130Z,100256.88
2018-09-20T08:49:23.660Z,100253.22
2018-09-20T08:52:26.677Z,100258.22
2018-09-20T08:55:29.626Z,100252.83
2018-09-20T08:58:33.447Z,100255.41
2018-09-20T09:01:36.352Z,100255.79
2018-09-20T09:04:39.339Z,100260.79
2018-09-20T09:07:42.883Z,100270.30
2018-09-20T09:10:46.282Z,100248.53
2018-09-20T09:13:49.565Z,100246.84
2018-09-20T09:16:52.524Z,100244.97
2018-09-20T09:19:55.913Z,100247.64
2018-09-20T09:22:58.798Z,100243.76
2018-09-20T09:26:01.763Z,100244.81
2018-09-20T09:29:05.261Z,100248.38
2018-09-20T09:32:08.214Z,100240.16
2018-09-20T09:35:11.704Z,100245.84
2018-09-20T09:38:14.651Z,100235.20
2018-09-20T09:41:17.585Z,100224.55
2018-09-20T09:44:21.046Z,100223.33
2018-09-20T09:47:24.413Z,100222.04
2018-09-20T09:50:27.348Z,100221.20
2018-09-20T09:53:30.622Z,100217.66
2018-09-20T09:56:34.028Z,100214.96
2018-09-20T09:59:37.457Z,100217.07
2018-09-20T10:02:40.918Z,100211.45
2018-09-20T10:05:43.803Z,100201.25
2018-09-20T10:08:46.753Z,100202.83
2018-09-20T10:11:50.165Z,100205.66
2018-09-20T10:14:53.094Z,100201.94
2018-09-20T10:17:56.056Z,100201.84
2018-09-20T10:20:59.596Z,100196.64
2018-09-20T10:24:02.619Z,100186.50
2018-09-20T10:27:05.498Z,100197.55
2018-09-20T10:30:08.454Z,100197.19
2018-09-20T10:33:11.932Z,100195.69
2018-09-20T10:36:15.386Z,100198.08
2018-09-20T10:39:18.293Z,100190.55
2018-09-20T10:42:21.660Z,100190.71
2018-09-20T10:45:25.192Z,100199.64
2018-09-20T10:48:28.145Z,100188.12
2018-09-20T10:51:31.165Z,100192.17
2018-09-20T10:54:34.542Z,100174.66
2018-09-20T10:57:37.485Z,100167.03
2018-09-20T11:00:40.821Z,100158.72
2018-09-20T11:03:43.773Z,100185.23
2018-09-20T11:06:47.201Z,100166.59
2018-09-20T11:09:50.158Z,100161.12
2018-09-20T11:12:53.065Z,100147.44
2018-09-20T11:15:56.062Z,100147.39
2018-09-20T11:18:59.576Z,100140.67
2018-09-20T11:22:02.768Z,100152.97
2018-09-20T11:25:06.358Z,100148.78
2018-09-20T11:28:09.869Z,100148.06
2018-09-20T11:31:12.782Z,100136.57
2018-09-20T11:34:15.661Z,100133.50
2018-09-20T11:37:18.562Z,100129.82
2018-09-20T11:40:21.489Z,100128.33
2018-09-20T11:43:24.402Z,100135.23
2018-09-20T11:46:27.965Z,100134.23
2018-09-20T11:49:30.954Z,100139.89
2018-09-20T11:52:33.902Z,100139.79
2018-09-20T11:55:37.387Z,100135.76
2018-09-20T11:58:40.313Z,100132.03
2018-09-20T12:01:43.882Z,100124.75
2018-09-20T12:04:46.782Z,100122.49
2018-09-20T12:07:49.722Z,100113.47
2018-09-20T12:10:53.274Z,100121.09
2018-09-20T12:13:56.200Z,100120.14
2018-09-20T12:16:59.803Z,100118.44
2018-09-20T12:20:02.905Z,100112.96
2018-09-20T12:23:06.372Z,100117.00
2018-09-20T12:26:09.299Z,100100.81
2018-09-20T12:29:12.675Z,100102.41
2018-09-20T12:32:15.701Z,100095.63
2018-09-20T12:35:18.689Z,100090.55
2018-09-20T12:38:22.124Z,100079.21
2018-09-20T12:41:25.084Z,100074.22
2018-09-20T12:44:28.473Z,100067.37
2018-09-20T12:47:32.305Z,100066.57
2018-09-20T12:50:35.283Z,100059.23
2018-09-20T12:53:38.218Z,100052.37
2018-09-20T12:56:41.184Z,100050.94
2018-09-20T12:59:44.142Z,100059.66
2018-09-20T13:02:47.103Z,100043.23
2018-09-20T13:05:50.090Z,100033.48
2018-09-20T13:08:53.553Z,100038.84
2018-09-20T13:11:56.929Z,100036.85
2018-09-20T13:14:59.846Z,100034.77
2018-09-20T13:18:02.858Z,100028.90
2018-09-20T13:21:06.211Z,100017.33
2018-09-20T13:24:09.456Z,100020.14
2018-09-20T13:27:12.861Z,100020.25
2018-09-20T13:30:15.808Z,100016.41
2018-09-20T13:33:19.241Z,100022.84
2018-09-20T13:36:22.208Z,100029.11
2018-09-20T13:39:25.160Z,100029.55
2018-09-20T13:42:28.130Z,100023.89
2018-09-20T13:45:31.746Z,100026.41
2018-09-20T13:48:35.268Z,100016.70
2018-09-20T13:51:38.635Z,100006.22
2018-09-20T13:54:41.593Z,99992.43
2018-09-20T13:57:44.517Z,99998.00
2018-09-20T14:00:47.490Z,99998.11
2018-09-20T14:03:50.426Z,99992.55
2018-09-20T14:06:53.745Z,99985.58
2018-09-20T14:09:57.304Z,99979.73
2018-09-20T14:13:00.830Z,99975.45
2018-09-20T14:16:03.776Z,99975.61
2018-09-20T14:19:07.735Z,99969.94
2018-09-20T14:22:10.669Z,99951.45
2018-09-20T14:25:13.600Z,99964.42
2018-09-20T14:28:16.800Z,99958.34
2018-09-20T14:31:19.701Z,99953.45
2018-09-20T14:34:22.713Z,99947.80
2018-09-20T14:37:26.622Z,99941.91
2018-09-20T14:40:30.507Z,99935.89
2018-09-20T14:43:33.473Z,99931.24
2018-09-20T14:46:37.911Z,99933.91
2018-09-20T14:49:40.898Z,99932.31
2018-09-20T14:52:43.888Z,99918.50
2018-09-20T14:55:47.010Z,99915.83
2018-09-20T14:58:50.151Z,99909.48
2018-09-20T15:01:53.124Z,99904.16
2018-09-20T15:04:56.443Z,99907.76
2018-09-20T15:07:59.928Z,99901.95
2018-09-20T15:11:03.325Z,99907.34
2018-09-20T15:14:06.349Z,99895.77
2018-09-20T15:17:09.258Z,99890.18
2018-09-20T15:20:12.648Z,99876.02
2018-09-20T15:23:16.090Z,99882.79
2018-09-20T15:26:19.474Z,99881.81
2018-09-20T15:29:22.795Z,99883.62
2018-09-20T15:32:25.746Z,99876.94
2018-09-20T15:35:28.655Z,99872.71
2018-09-20T15:38:31.612Z,99873.05
2018-09-20T15:41:35.073Z,99864.84
2018-09-20T15:44:38.393Z,99860.74
2018-09-20T15:47:41.298Z,99858.92
2018-09-20T15:50:44.252Z,99851.95
2018-09-20T15:53:47.181Z,99844.75
2018-09-20T15:56:50.707Z,99844.96
2018-09-20T15:59:54.397Z,99843.21
2018-09-20T16:02:57.361Z,99834.52
2018-09-20T16:06:00.806Z,99827.79
2018-09-20T16:09:06.739Z,99836.37
2018-09-20T16:12:10.194Z,99840.93
2018-09-20T16:15:13.142Z,99833.70
2018-09-20T16:18:16.588Z,99828.20
2018-09-20T16:21:19.561Z,99824.26
2018-09-20T16:24:22.475Z,99819.84
2018-09-20T16:27:25.899Z,99814.34
2018-09-20T16:31:11.714Z,99809.66
2018-09-20T16:35:32.957Z,99792.91
2018-09-20T16:38:50.747Z,99790.61
2018-09-20T16:41:58.788Z,99786.83
2018-09-20T16:45:01.920Z,99779.97
2018-09-20T16:48:04.860Z,99770.27
2018-09-20T16:51:07.853Z,99767.52
2018-09-20T16:54:11.008Z,99768.12
2018-09-20T16:57:13.905Z,99764.62
2018-09-20T17:00:17.207Z,99765.22
2018-09-20T17:03:21.081Z,99761.65
2018-09-20T17:06:24.050Z,99760.13
2018-09-20T17:09:27.057Z,99766.44
2018-09-20T17:12:30.113Z,99769.83
2018-09-20T17:15:33.071Z,99766.31
2018-09-20T17:18:36.553Z,99766.48
2018-09-20T17:21:39.510Z,99762.84
2018-09-20T17:24:42.828Z,99757.44
2018-09-20T17:27:45.841Z,99756.80
2018-09-20T17:30:48.869Z,99757.07
2018-09-20T17:33:52.658Z,99756.44
2018-09-20T17:36:58.097Z,99749.69
2018-09-20T17:40:02.121Z,99752.02
2018-09-20T17:43:07.685Z,99749.43
2018-09-20T17:46:11.341Z,99752.50
2018-09-20T17:49:14.279Z,99748.56
2018-09-20T17:52:17.896Z,99744.50
2018-09-20T17:55:22.018Z,99741.58
2018-09-20T17:58:26.628Z,99741.31
2018-09-20T18:01:29.720Z,99736.27
2018-09-20T18:04:33.278Z,99733.45
2018-09-20T18:07:36.258Z,99730.75
2018-09-20T18:10:40.330Z,99721.42
2018-09-20T18:13:43.425Z,99721.30
2018-09-20T18:16:46.449Z,99721.73
2018-09-20T18:19:49.427Z,99723.75
2018-09-20T18:22:54.950Z,99716.98
2018-09-20T18:25:57.986Z,99706.13
2018-09-20T18:29:00.959Z,99698.00
2018-09-20T18:32:03.944Z,99705.34
2018-09-20T18:35:07.499Z,99709.03
2018-09-20T18:38:11.433Z,99707.31
2018-09-20T18:41:14.468Z,99709.03
2018-09-20T18:44:18.021Z,99702.43
2018-09-20T18:47:21.004Z,99704.50
2018-09-20T18:50:24.141Z,99700.07
2018-09-20T18:53:27.142Z,99703.52
2018-09-20T18:56:30.233Z,99699.59
2018-09-20T18:59:33.179Z,99702.92
2018-09-20T19:02:36.136Z,99710.38
2018-09-20T19:05:39.108Z,99703.63
2018-09-20T19:08:42.271Z,99701.20
2018-09-20T19:11:45.305Z,99702.55
2018-09-20T19:14:48.648Z,99704.34
2018-09-20T19:17:52.066Z,99702.88
2018-09-20T19:20:55.301Z,99700.91
2018-09-20T19:23:58.832Z,99698.33
2018-09-20T19:27:02.312Z,99690.97
2018-09-20T19:30:06.475Z,99693.33
2018-09-20T19:33:09.377Z,99688.77
2018-09-20T19:36:12.894Z,99695.91
2018-09-20T19:39:16.400Z,99684.70
2018-09-20T19:42:19.453Z,99680.55
2018-09-20T19:45:22.418Z,99675.17
2018-09-20T19:48:25.429Z,99680.94
2018-09-20T19:51:28.408Z,99675.55
2018-09-20T19:54:31.338Z,99671.47
2018-09-20T19:57:34.264Z,99669.64
2018-09-20T20:01:03.029Z,99660.91
2018-09-20T20:04:06.014Z,99661.66
2018-09-20T20:07:09.068Z,99657.59
2018-09-20T20:10:12.724Z,99656.52
2018-09-20T20:13:16.661Z,99648.25
2018-09-20T20:16:19.645Z,99654.38
2018-09-20T20:19:22.650Z,99657.47
2018-09-20T20:22:25.608Z,99647.23
2018-09-20T20:25:29.003Z,99649.11
2018-09-20T20:28:32.564Z,99646.16
2018-09-20T20:31:35.467Z,99635.72
2018-09-20T20:34:38.388Z,99622.80
2018-09-20T20:37:41.962Z,99620.97
2018-09-20T20:40:44.908Z,99608.32
2018-09-20T20:43:47.846Z,99607.05
2018-09-20T20:46:50.797Z,99612.77
2018-09-20T20:49:54.102Z,99607.80
2018-09-20T20:52:57.074Z,99602.77
2018-09-20T20:56:00.415Z,99599.84
2018-09-20T20:59:03.410Z,99598.71
2018-09-20T21:02:06.356Z,99596.37
2018-09-20T21:05:09.826Z,99590.86
2018-09-20T21:08:12.761Z,99589.50
2018-09-20T21:11:16.046Z,99589.03
2018-09-20T21:14:19.368Z,99580.84
2018-09-20T21:17:22.369Z,99578.25
2018-09-20T21:20:25.272Z,99578.77
2018-09-20T21:23:28.914Z,99576.47
2018-09-20T21:26:32.398Z,99574.73
2018-09-20T21:29:35.725Z,99574.06
2018-09-20T21:32:38.747Z,99571.89
2018-09-20T21:35:43.171Z,99562.57
2018-09-20T21:38:46.087Z,99549.56
2018-09-20T21:41:49.502Z,99543.55
2018-09-20T21:44:53.132Z,99539.81
2018-09-20T21:47:56.627Z,99544.52
2018-09-20T21:51:01.151Z,99534.31
2018-09-20T21:54:04.169Z,99536.83
2018-09-20T21:57:07.151Z,99526.64
2018-09-20T22:00:10.098Z,99521.49
2018-09-20T22:03:13.017Z,99520.84
2018-09-20T22:06:15.929Z,99508.48
2018-09-20T22:09:18.809Z,99507.34
2018-09-20T22:12:21.738Z,99507.41
2018-09-20T22:15:25.678Z,99503.94
2018-09-20T22:18:28.676Z,99496.41
2018-09-20T22:21:31.633Z,99491.20
2018-09-20T22:24:34.493Z,99491.67
2018-09-20T22:27:37.549Z,99495.25
2018-09-20T22:30:40.378Z,99487.89
2018-09-20T22:33:43.282Z,99478.89
2018-09-20T22:36:46.149Z,99473.14
2018-09-20T22:39:49.130Z,99463.97
2018-09-20T22:42:52.010Z,99456.36
2018-09-20T22:45:54.978Z,99450.91
2018-09-20T22:48:57.892Z,99443.44
2018-09-20T22:52:00.807Z,99435.47
2018-09-20T22:55:03.797Z,99433.59
2018-09-20T22:58:06.777Z,99432.30
2018-09-20T23:01:14.275Z,99428.89
2018-09-20T23:04:17.193Z,99419.12
2018-09-20T23:07:20.140Z,99421.89
2018-09-20T23:10:23.075Z,99406.75
2018-09-20T23:13:25.987Z,99411.53
2018-09-20T23:16:28.924Z,99397.59
2018-09-20T23:19:31.920Z,99398.20
2018-09-20T23:22:34.804Z,99406.65
2018-09-20T23:25:37.710Z,99402.41
2018-09-20T23:28:40.665Z,99396.77
2018-09-20T23:31:43.873Z,99401.08
2018-09-20T23:34:46.715Z,99384.49
2018-09-20T23:37:49.602Z,99388.69
2018-09-20T23:40:52.506Z,99386.97
2018-09-20T23:43:55.458Z,99381.08
2018-09-20T23:46:58.358Z,99381.08
2018-09-20T23:50:01.326Z,99381.57
2018-09-20T23:53:04.341Z,99377.28
2018-09-20T23:56:07.302Z,99377.80
2018-09-20T23:59:10.222Z,99372.40
